Air Resources Laboratory banner image
Air Resources Laboratory web site National Oceanic and Atmospheric Administration (NOAA)

il metar


KALN 172350Z 00000KT 10SM SCT200 27/21 A3003=
KARR 172352Z 06005KT 10SM CLR 27/16 A3006 RMK AO2 SLP175 T02670156 10300 20267
 53002=
KBLV 172356Z AUTO 04005KT 10SM FEW220 29/21 A3000 RMK AO2 SLP158 T02910205
 10307 20291 57006 $=
KBMI 172356Z 35009KT 10SM SCT055 28/17 A3007 RMK AO2 SLP192 T02780167 10300
 20278 57003=
KCMI 172353Z 32005KT 10SM CLR 27/19 A3005 RMK AO2 SLP169 T02670189 10300 20267
 58003=
KCPS 172353Z 05006KT 10SM CLR 29/21 A3001 RMK AO2 SLP159 T02940206 10322 20294
 55006=
KDEC 172354Z 02003KT 10SM CLR 28/19 A3004 RMK AO2 SLP167 T02830189 10300 20283
 58005=
KDNV 172355Z AUTO 34006KT 10SM SCT050 27/19 A3002 RMK AO2 T02710187 10291 20271=
KDPA 172352Z 05009KT 10SM CLR 24/14 A3006 RMK AO2 SLP175 T02440139 10289 20244
 53003=
KGBG 172355Z AUTO 00000KT 10SM CLR 28/18 A3007 RMK AO2 T02830177 10300 20277=
KIKK 172355Z AUTO 05009KT 10SM SCT002 25/15 A3007 RMK AO2 T02450145 10298 20245=
KLOT 172355Z AUTO 10008KT 10SM CLR 25/14 A3007 RMK AO2 T02450139 10295 20245=
KLWV 172353Z AUTO 34007KT 10SM CLR 29/16 A3000 RMK AO2 SLP155 T02940161 10317
 20294 55003=
KMDH 172352Z 04007KT 10SM CLR 29/22 A2999=
KMDW 172353Z 03011KT 10SM FEW048 FEW250 24/14 A3007 RMK AO2 SLP173 T02440139
 10272 20244 53001=
KMLI 172352Z 32008KT 10SM BKN060 BKN080 30/17 A3004 RMK AO2 SLP169 T03000172
 10311 20294 58004=
KMTO 172353Z AUTO 01007KT 10SM CLR 28/19 A3002 RMK AO2 SLP161 T02780189 10300
 20278 58005=
KMVN 172356Z AUTO 02004KT 10SM CLR 28/21 A3002 RMK AO2 SLP160 T02830206 10317
 20283 55002=
KMWA 172345Z 02006KT 20SM BKN150 28/22 A3000=
KORD 172351Z 03010G20KT 10SM FEW060 FEW250 24/14 A3007 RMK AO2 SLP180 T02390139
 10272 20239 53002=
KPIA 172354Z 34004KT 10SM CLR 29/18 A3005 RMK AO2 SLP171 T02890183 10306 20278
 58002=
KPWK 172352Z 04009KT 10SM CLR 23/16 A3010 RMK AO2 SLP187 T02330156 10272 20233
 53001=
KRFD 172354Z 02007KT 10SM FEW055 26/11 A3008 RMK AO2 SLP181 T02610111 10289
 20261 58001=
KSLO 172355Z AUTO 02004KT 10SM CLR 27/21 A3003 RMK AO2 T02700211 10299 20270=
KSPI 172352Z 01004KT 10SM CLR 29/19 A3005 RMK AO2 SLP170 6//// T02890189 10306
 20283 $=
KSQI 172356Z AUTO 03006KT 10SM CLR 27/18 A3006 RMK AO2 SLP191 6//// T02720178
 10294 20272 58001 PNO $=
KUGN 172355Z 03008KT 10SM FEW060 21/16 A3009 RMK AO2 SLP180 T02110161 10250
 20211 53003=
KUIN 172354Z AUTO 05006KT 10SM CLR 29/16 A3004 RMK AO2 SLP167 T02890156 10311
 20283 58009=